Time;durP1;ratioP1;P1;durP2;ratioP2;P2;SDS_P1;SDS_P2;PMS_P1;PMS_P2;Temp;Humidity;BMP_temperature;BMP_pressure;BME280_temperature;BME280_humidity;BME280_pressure;Samples;Min_cycle;Max_cycle;Signal;HPM_P1;HPM_P2
2024/03/08 00:01:45;;;;;;;17.80;8.60;;;;;;;0.18;89.70;101576.63;107007;1256;61356;-87
2024/03/08 00:04:25;;;;;;;19.60;9.40;;;;;;;0.17;89.81;101570.45;106499;1254;72507;-87
2024/03/08 00:07:06;;;;;;;17.50;8.00;;;;;;;0.18;89.80;101570.02;106310;1258;67408;-86
2024/03/08 00:09:46;;;;;;;17.80;8.20;;;;;;;0.19;90.09;101567.05;106508;1259;72611;-85
2024/03/08 00:12:26;;;;;;;17.30;7.60;;;;;;;0.18;90.37;101567.70;106513;1264;61203;-88
2024/03/08 00:15:06;;;;;;;16.60;8.40;;;;;;;0.20;90.30;101566.55;106118;1259;61244;-88
2024/03/08 00:17:47;;;;;;;15.40;8.40;;;;;;;0.21;90.35;101561.16;106610;1256;74635;-87
2024/03/08 00:20:28;;;;;;;14.90;7.50;;;;;;;0.21;90.47;101557.78;107326;1259;68708;-88
2024/03/08 00:23:08;;;;;;;16.00;8.90;;;;;;;0.20;90.88;101555.61;106298;1251;71490;-87
2024/03/08 00:25:48;;;;;;;17.00;8.40;;;;;;;0.20;91.15;101553.86;106455;1255;61241;-88
2024/03/08 00:28:28;;;;;;;16.80;8.50;;;;;;;0.20;91.76;101551.55;106474;1251;61327;-88
2024/03/08 00:31:08;;;;;;;19.20;9.00;;;;;;;0.17;92.76;101550.63;106228;1259;74684;-88
2024/03/08 00:33:48;;;;;;;16.20;8.10;;;;;;;0.16;93.45;101554.59;106154;1251;68437;-88
2024/03/08 00:36:30;;;;;;;17.50;8.00;;;;;;;0.16;93.69;101551.98;106262;1254;72632;-88
2024/03/08 00:39:11;;;;;;;14.00;6.20;;;;;;;0.18;94.18;101551.03;106318;1257;61375;-88
2024/03/08 00:41:52;;;;;;;16.60;8.60;;;;;;;0.18;93.73;101546.90;106332;1253;61192;-88
2024/03/08 00:44:31;;;;;;;18.60;9.50;;;;;;;0.16;93.58;101547.62;106344;1253;75037;-88
2024/03/08 00:47:12;;;;;;;17.20;8.70;;;;;;;0.17;93.55;101543.95;106800;1252;67393;-88
2024/03/08 00:49:53;;;;;;;16.00;8.90;;;;;;;0.14;93.53;101538.58;106298;1256;71483;-88
2024/03/08 00:52:34;;;;;;;19.00;8.80;;;;;;;0.16;93.80;101537.60;106643;1254;61862;-88
2024/03/08 00:55:14;;;;;;;17.90;8.70;;;;;;;0.16;94.57;101533.30;106523;1256;61167;-87
2024/03/08 00:57:54;;;;;;;20.70;10.00;;;;;;;0.13;94.63;101533.34;106440;1251;74641;-88
2024/03/08 01:00:34;;;;;;;15.10;8.30;;;;;;;0.12;94.63;101534.67;106413;1258;66138;-88
2024/03/08 01:03:14;;;;;;;17.60;8.70;;;;;;;0.14;94.37;101533.52;106964;1254;71372;-88
2024/03/08 01:05:54;;;;;;;19.30;9.10;;;;;;;0.14;94.46;101536.16;106514;1254;61310;-88
2024/03/08 01:08:34;;;;;;;16.70;9.00;;;;;;;0.14;94.33;101533.05;106223;1254;61176;-88
2024/03/08 01:11:14;;;;;;;16.60;8.20;;;;;;;0.14;94.71;101535.08;106377;1257;74686;-87
2024/03/08 01:13:54;;;;;;;18.10;8.30;;;;;;;0.16;94.81;101532.67;106361;1257;68352;-87
2024/03/08 01:16:34;;;;;;;17.40;8.60;;;;;;;0.15;94.67;101534.40;106380;1254;72664;-87
2024/03/08 01:19:15;;;;;;;14.20;8.00;;;;;;;0.13;95.38;101530.89;106555;1251;61385;-88
2024/03/08 01:21:56;;;;;;;16.90;8.30;;;;;;;0.11;94.59;101531.95;106489;1251;61208;-88
2024/03/08 01:24:37;;;;;;;14.20;8.30;;;;;;;0.12;93.56;101530.99;106603;1257;75081;-88
2024/03/08 01:27:17;;;;;;;17.10;8.50;;;;;;;0.11;93.03;101527.65;106444;1252;68601;-87
2024/03/08 01:29:59;;;;;;;17.10;8.60;;;;;;;0.12;92.99;101524.66;106246;1254;72922;-87
2024/03/08 01:32:39;;;;;;;;;;;;;;;0.12;93.31;101519.84;106568;1253;61305;-87
2024/03/08 01:35:21;;;;;;;14.50;7.80;;;;;;;0.12;93.84;101524.14;106648;1254;61083;-88
2024/03/08 01:38:01;;;;;;;16.90;9.20;;;;;;;0.11;94.65;101524.95;106204;1261;257585;-87
2024/03/08 01:40:41;;;;;;;18.90;9.10;;;;;;;0.11;94.95;101527.64;106597;1257;67124;-88
2024/03/08 01:43:34;;;;;;;17.90;8.60;;;;;;;0.11;95.32;101523.67;106537;1254;73203;-88
2024/03/08 01:46:16;;;;;;;16.50;8.30;;;;;;;0.11;94.87;101520.66;106496;1254;61227;-87
2024/03/08 01:48:56;;;;;;;20.80;10.80;;;;;;;0.11;94.66;101516.05;106213;1254;61341;-88
2024/03/08 01:51:35;;;;;;;15.40;9.00;;;;;;;0.12;93.87;101516.41;107355;1257;74725;-88
2024/03/08 01:54:15;;;;;;;18.40;9.00;;;;;;;0.11;92.70;101513.50;106375;1251;68510;-87
2024/03/08 01:56:55;;;;;;;17.50;8.80;;;;;;;0.10;91.94;101511.09;106473;1253;72712;-86
2024/03/08 01:59:35;;;;;;;19.90;9.50;;;;;;;0.09;93.05;101507.80;106475;1251;61708;-87
2024/03/08 02:02:15;;;;;;;18.90;9.20;;;;;;;0.06;93.02;101504.21;106342;1254;61192;-87
2024/03/08 02:04:55;;;;;;;18.80;9.60;;;;;;;0.07;92.74;101500.78;106127;1253;74582;-88
2024/03/08 02:07:35;;;;;;;19.20;8.00;;;;;;;0.10;93.14;101496.11;106529;1257;67176;-87
2024/03/08 02:10:16;;;;;;;18.80;8.80;;;;;;;0.12;93.95;101493.30;107148;1254;72425;-87
2024/03/08 02:12:55;;;;;;;20.20;9.10;;;;;;;0.13;94.32;101493.36;106535;1257;61448;-87
2024/03/08 02:16:07;;;;;;;19.60;8.30;;;;;;;0.14;94.85;101490.23;106450;1254;61305;-87
2024/03/08 02:18:48;;;;;;;17.60;8.70;;;;;;;0.13;95.46;101491.00;106456;1251;74626;-87
2024/03/08 02:21:28;;;;;;;19.80;10.10;;;;;;;0.15;95.87;101493.68;106387;1254;68150;-87
2024/03/08 02:24:09;;;;;;;17.20;7.90;;;;;;;0.17;94.87;101491.80;106206;1254;72729;-87
2024/03/08 02:26:49;;;;;;;22.80;11.40;;;;;;;0.17;95.28;101494.39;107768;1256;60121;-88
2024/03/08 02:29:29;;;;;;;20.20;9.20;;;;;;;0.15;95.82;101494.46;106311;1251;61456;-88
2024/03/08 02:32:09;;;;;;;21.50;9.50;;;;;;;0.13;96.56;101498.36;106610;1251;73423;-88
2024/03/08 02:34:49;;;;;;;19.60;8.80;;;;;;;0.11;97.30;101497.21;106388;1254;68351;-87
2024/03/08 02:37:29;;;;;;;15.50;8.10;;;;;;;0.12;97.94;101493.04;106499;1252;71736;-88
2024/03/08 02:40:09;;;;;;;16.00;8.90;;;;;;;0.14;98.64;101491.88;106564;1253;61369;-89
2024/03/08 02:42:49;;;;;;;18.20;9.40;;;;;;;0.13;99.52;101489.77;107475;1251;61186;-88
2024/03/08 02:45:29;;;;;;;17.80;8.50;;;;;;;0.14;99.28;101486.80;106405;1254;74656;-88
2024/03/08 02:48:10;;;;;;;18.50;8.90;;;;;;;0.11;99.73;101485.38;106600;1256;68567;-88
2024/03/08 02:50:51;;;;;;;16.20;9.00;;;;;;;0.12;99.39;101482.79;106590;1257;71701;-87
2024/03/08 02:53:35;;;;;;;14.50;8.70;;;;;;;0.13;99.20;101479.09;106331;1251;61224;-87
2024/03/08 02:56:16;;;;;;;17.90;9.20;;;;;;;0.14;98.87;101476.98;106573;1251;61325;-87
2024/03/08 02:58:56;;;;;;;19.90;9.60;;;;;;;0.13;98.25;101478.30;107406;1251;75090;-87
2024/03/08 03:01:38;;;;;;;22.40;9.20;;;;;;;0.12;97.46;101481.64;106567;1251;68412;-87
2024/03/08 03:04:18;;;;;;;16.40;7.60;;;;;;;0.07;95.49;101479.45;106454;1257;71513;-88
2024/03/08 03:06:58;;;;;;;17.70;8.70;;;;;;;0.02;95.11;101479.48;106415;1257;62632;-87
2024/03/08 03:09:37;;;;;;;15.70;7.90;;;;;;;-0.00;96.07;101473.98;106502;1251;61298;-87
2024/03/08 03:12:18;;;;;;;16.40;8.10;;;;;;;-0.02;96.07;101476.34;106388;1251;72771;-87
2024/03/08 03:14:58;;;;;;;16.60;8.60;;;;;;;-0.02;96.11;101480.15;106358;1251;69585;-88
2024/03/08 03:17:37;;;;;;;17.60;9.00;;;;;;;-0.04;95.19;101480.87;106320;1254;72671;-87
2024/03/08 03:20:22;;;;;;;16.60;7.80;;;;;;;-0.02;92.81;101480.30;107812;1251;60040;-87
2024/03/08 03:23:03;;;;;;;18.80;8.30;;;;;;;-0.01;91.48;101479.80;106399;1251;61285;-87
2024/03/08 03:25:43;;;;;;;17.50;7.70;;;;;;;-0.03;90.53;101479.81;106577;1251;74660;-88
2024/03/08 03:28:23;;;;;;;14.10;7.70;;;;;;;-0.04;90.97;101477.45;106369;1254;68825;-86
2024/03/08 03:31:03;;;;;;;15.80;8.00;;;;;;;-0.05;91.66;101478.73;106468;1254;71769;-87
2024/03/08 03:33:46;;;;;;;15.90;8.60;;;;;;;-0.09;91.91;101475.83;106715;1250;61286;-87
2024/03/08 03:36:27;;;;;;;16.60;9.10;;;;;;;-0.13;92.28;101473.57;106402;1251;61275;-87
2024/03/08 03:39:10;;;;;;;15.50;7.30;;;;;;;-0.17;92.24;101474.38;106485;1251;74661;-87
2024/03/08 03:41:51;;;;;;;12.70;7.00;;;;;;;-0.15;91.98;101471.61;106551;1258;67243;-88
2024/03/08 03:44:32;;;;;;;14.70;7.40;;;;;;;-0.12;91.45;101475.91;107025;1257;71656;-88
2024/03/08 03:47:13;;;;;;;16.50;8.10;;;;;;;-0.12;90.20;101472.32;106538;1253;61296;-86
2024/03/08 07:49:59;;;;;;;18.10;9.30;;;;;;;3.94;64.40;101418.67;106488;1253;75831;-86
2024/03/08 07:52:37;;;;;;;17.30;8.80;;;;;;;4.06;63.19;101420.40;106398;1251;69652;-86
2024/03/08 07:55:10;;;;;;;18.50;10.00;;;;;;;4.13;61.77;101417.14;106250;1257;74940;-86
2024/03/08 07:57:42;;;;;;;21.20;10.70;;;;;;;4.20;61.12;101418.15;106287;1256;61795;-85
2024/03/08 08:00:17;;;;;;;15.70;9.10;;;;;;;4.23;60.57;101417.35;106407;1251;61147;-85
2024/03/08 08:02:49;;;;;;;17.50;9.20;;;;;;;4.16;60.27;101422.07;106356;1251;76067;-85
2024/03/08 08:05:20;;;;;;;18.00;10.00;;;;;;;4.10;60.41;101419.39;106473;1256;69574;-86
2024/03/08 08:07:53;;;;;;;18.70;9.40;;;;;;;4.01;59.53;101423.61;106446;1253;75004;-85
2024/03/08 08:10:28;;;;;;;15.60;9.00;;;;;;;3.89;59.46;101423.02;107126;1253;61397;-85
2024/03/08 08:12:57;;;;;;;15.80;8.80;;;;;;;3.86;59.61;101423.48;107618;1251;60261;-86
2024/03/08 08:15:30;;;;;;;22.30;9.20;;;;;;;3.89;60.79;101416.98;106385;1251;76756;-86
2024/03/08 08:18:05;;;;;;;20.60;10.40;;;;;;;3.93;61.78;101417.68;106495;1256;71138;-86
2024/03/08 08:20:40;;;;;;;16.00;9.80;;;;;;;4.08;61.59;101412.98;106718;1253;73014;-86
2024/03/08 08:23:11;;;;;;;19.40;10.00;;;;;;;4.23;61.67;101406.53;106252;1254;61487;-86
2024/03/08 08:25:39;;;;;;;17.50;9.80;;;;;;;4.33;61.12;101408.40;106503;1256;61430;-86
2024/03/08 08:28:10;;;;;;;20.40;9.80;;;;;;;4.39;62.34;101405.04;106422;1254;76437;-85
2024/03/08 08:30:38;;;;;;;16.70;9.10;;;;;;;4.49;61.38;101407.26;106411;1253;70154;-86
2024/03/08 08:33:10;;;;;;;17.70;9.70;;;;;;;4.75;60.60;101403.23;106482;1253;73720;-86
2024/03/08 08:35:46;;;;;;;17.90;10.20;;;;;;;4.87;60.54;101405.23;106375;1254;61230;-87
2024/03/08 08:38:20;;;;;;;18.10;10.10;;;;;;;5.16;59.24;101396.13;106234;1251;62001;-87
2024/03/08 08:40:48;;;;;;;53.00;14.40;;;;;;;5.28;58.33;101397.70;106294;1254;75896;-85
2024/03/08 08:43:17;;;;;;;18.80;11.00;;;;;;;5.25;57.79;101396.14;106325;1256;70685;-85
2024/03/08 08:45:47;;;;;;;18.90;9.30;;;;;;;5.18;56.55;101392.23;106343;1251;76066;-85
2024/03/08 08:48:21;;;;;;;17.90;9.40;;;;;;;5.00;55.81;101393.88;106271;1251;61282;-86
2024/03/08 08:50:50;;;;;;;19.80;10.40;;;;;;;4.88;55.80;101395.95;106502;1250;62150;-86
2024/03/08 08:53:18;;;;;;;18.60;9.80;;;;;;;4.72;56.11;101393.98;106352;1251;77031;-85
2024/03/08 08:55:46;;;;;;;17.40;9.60;;;;;;;4.66;56.38;101390.55;106512;1256;71395;-85
2024/03/08 08:58:14;;;;;;;16.60;9.00;;;;;;;4.62;56.32;101386.98;106556;1253;74923;-85
2024/03/08 09:00:43;;;;;;;17.20;9.10;;;;;;;4.72;56.71;101388.51;107196;1254;61949;-85
2024/03/08 09:03:12;;;;;;;18.50;9.90;;;;;;;4.82;56.55;101386.14;106368;1251;61214;-87
2024/03/08 09:05:47;;;;;;;16.80;9.70;;;;;;;4.91;56.51;101386.50;106424;1253;74950;-85
2024/03/08 09:08:15;;;;;;;18.20;10.30;;;;;;;5.04;56.96;101380.75;106689;1256;70665;-86
2024/03/08 09:10:49;;;;;;;18.80;9.60;;;;;;;5.18;55.49;101378.30;106364;1257;73856;-86
2024/03/08 09:13:25;;;;;;;18.00;9.50;;;;;;;5.09;56.11;101372.30;106610;1256;61436;-84
2024/03/08 09:16:06;;;;;;;18.10;10.10;;;;;;;5.25;57.40;101372.45;106430;1252;61195;-84
2024/03/08 09:18:35;;;;;;;18.00;9.90;;;;;;;5.47;56.88;101366.84;106409;1251;76771;-86
2024/03/08 09:21:03;;;;;;;17.30;9.50;;;;;;;5.61;57.24;101365.33;106314;1251;70277;-84
2024/03/08 09:23:31;;;;;;;18.90;9.40;;;;;;;5.74;56.88;101362.40;106452;1251;74696;-84
2024/03/08 09:25:58;;;;;;;18.00;10.30;;;;;;;5.84;55.52;101357.86;106535;1253;61251;-86
2024/03/08 09:28:27;;;;;;;16.70;9.30;;;;;;;6.02;54.68;101357.41;106550;1250;61282;-86
2024/03/08 09:30:58;;;;;;;18.10;9.40;;;;;;;6.24;51.99;101354.84;106790;1257;76743;-87
2024/03/08 09:33:33;;;;;;;17.50;9.30;;;;;;;6.22;50.61;101352.09;106524;1251;70653;-84
2024/03/08 09:36:03;;;;;;;16.50;8.80;;;;;;;6.05;50.62;101351.02;106622;1250;74821;-85
2024/03/08 09:38:31;;;;;;;19.30;8.90;;;;;;;5.95;50.89;101350.76;106426;1251;61813;-84
2024/03/08 09:41:04;;;;;;;16.20;9.60;;;;;;;5.88;50.66;101344.92;106302;1250;61411;-87
2024/03/08 09:43:38;;;;;;;15.60;8.60;;;;;;;5.70;51.42;101343.67;106365;1251;76949;-86
2024/03/08 09:46:06;;;;;;;20.40;10.00;;;;;;;5.49;52.47;101344.59;106293;1250;71098;-85
2024/03/08 09:48:34;;;;;;;15.90;9.00;;;;;;;5.60;52.46;101341.85;106286;1251;75342;-87
2024/03/08 09:51:04;;;;;;;14.80;8.60;;;;;;;5.57;52.10;101340.14;107062;1254;61333;-86
2024/03/08 09:53:32;;;;;;;16.20;9.10;;;;;;;5.51;51.83;101340.34;106383;1251;61349;-86
2024/03/08 09:56:03;;;;;;;16.30;8.70;;;;;;;5.52;51.92;101334.80;107868;1256;75582;-86
2024/03/08 09:58:48;;;;;;;16.50;8.40;;;;;;;5.57;51.79;101327.94;107385;1257;68419;-84
2024/03/08 10:01:22;;;;;;;14.40;8.20;;;;;;;5.79;51.58;101324.13;106566;1256;73821;-84
2024/03/08 10:03:50;;;;;;;17.70;9.50;;;;;;;5.96;51.29;101320.81;106442;1253;61386;-83
2024/03/08 10:06:24;;;;;;;15.70;9.10;;;;;;;6.14;51.18;101313.77;107980;1250;61240;-84
2024/03/08 10:08:52;;;;;;;15.80;8.90;;;;;;;6.23;49.57;101315.51;106364;1253;75657;-87
2024/03/08 10:11:26;;;;;;;15.50;8.90;;;;;;;6.13;48.76;101315.01;106493;1256;70758;-84
2024/03/08 10:13:54;;;;;;;15.60;8.90;;;;;;;6.10;49.05;101309.10;106366;1253;75050;-83
2024/03/08 10:16:28;;;;;;;18.30;9.20;;;;;;;6.21;49.35;101306.98;106456;1258;61608;-86
2024/03/08 10:19:05;;;;;;;15.70;8.90;;;;;;;6.37;49.51;101297.23;106430;1252;61187;-86
2024/03/08 10:21:56;;;;;;;17.80;9.40;;;;;;;6.53;50.17;101287.66;106436;1256;76476;-84
2024/03/08 10:24:24;;;;;;;13.90;8.10;;;;;;;6.66;50.16;101282.36;106411;1253;70224;-84
2024/03/08 10:27:05;;;;;;;16.40;8.70;;;;;;;6.75;47.65;101281.54;106466;1250;75031;-86
2024/03/08 10:29:43;;;;;;;18.70;8.50;;;;;;;6.74;47.61;101280.23;106489;1253;61362;-84
2024/03/08 10:32:17;;;;;;;14.20;8.30;;;;;;;6.83;47.79;101279.15;106595;1256;61161;-85
2024/03/08 10:34:45;;;;;;;17.30;8.60;;;;;;;6.97;47.21;101273.65;106540;1256;75931;-84
2024/03/08 10:37:22;;;;;;;15.20;8.70;;;;;;;7.07;47.05;101272.23;106425;1253;69271;-86
2024/03/08 10:40:15;;;;;;;15.50;8.70;;;;;;;7.27;47.34;101271.41;106222;1253;72867;-87
2024/03/08 10:42:58;;;;;;;15.20;8.60;;;;;;;7.52;47.23;101271.86;106350;1250;61388;-84
2024/03/08 10:45:37;;;;;;;17.90;8.90;;;;;;;7.69;47.00;101265.32;106579;1250;61360;-85
2024/03/08 10:48:32;;;;;;;16.40;8.90;;;;;;;7.70;45.96;101260.95;106486;1250;75279;-86
2024/03/08 10:51:07;;;;;;;15.30;8.40;;;;;;;7.71;46.54;101259.59;106332;1253;70112;-86
2024/03/08 10:53:41;;;;;;;16.20;9.10;;;;;;;7.73;45.89;101255.07;106456;1250;75065;-84
2024/03/08 10:56:15;;;;;;;13.00;7.80;;;;;;;7.65;44.49;101254.23;106317;1251;61371;-84
2024/03/08 10:58:49;;;;;;;14.20;7.50;;;;;;;7.53;44.64;101243.60;107734;1256;61870;-84
2024/03/08 11:01:17;;;;;;;16.30;8.50;;;;;;;7.51;44.51;101242.22;107496;1251;75755;-84
2024/03/08 11:03:53;;;;;;;13.70;8.00;;;;;;;7.53;44.16;101244.09;106419;1257;71185;-87
2024/03/08 11:06:41;;;;;;;19.70;8.80;;;;;;;7.56;42.53;101235.77;106534;1251;74984;-84
2024/03/08 11:09:27;;;;;;;14.80;8.20;;;;;;;7.47;42.51;101232.76;106394;1256;61407;-87
2024/03/08 11:12:29;;;;;;;13.10;8.10;;;;;;;7.45;42.34;101231.25;106448;1251;61264;-85
2024/03/08 11:15:11;;;;;;;16.90;8.00;;;;;;;7.31;42.06;101226.61;106301;1253;76105;-84
2024/03/08 11:17:48;;;;;;;15.20;7.90;;;;;;;7.30;42.90;101225.71;106509;1251;70182;-86
2024/03/08 11:20:23;;;;;;;13.20;8.10;;;;;;;7.34;42.85;101223.73;106228;1250;73703;-84
2024/03/08 11:22:55;;;;;;;14.30;7.40;;;;;;;7.50;42.30;101227.16;106262;1256;61618;-84
2024/03/08 11:25:52;;;;;;;13.30;7.10;;;;;;;7.63;41.80;101218.58;106263;1251;62154;-87
2024/03/08 11:28:22;;;;;;;14.30;7.40;;;;;;;7.66;41.23;101212.98;106305;1250;76778;-84
2024/03/08 11:30:59;;;;;;;15.20;8.00;;;;;;;7.62;41.56;101213.45;106378;1250;69312;-84
2024/03/08 11:33:34;;;;;;;13.40;7.70;;;;;;;7.58;42.23;101209.66;106358;1253;74058;-84
2024/03/08 11:36:16;;;;;;;15.70;8.60;;;;;;;7.55;42.60;101208.41;106373;1253;61347;-85
2024/03/08 11:38:45;;;;;;;13.40;7.70;;;;;;;7.64;43.65;101200.77;106234;1250;61439;-84
2024/03/08 11:41:19;;;;;;;14.80;8.30;;;;;;;7.75;43.90;101196.66;106425;1250;76820;-84
2024/03/08 11:44:05;;;;;;;16.10;8.30;;;;;;;7.80;42.92;101197.14;106380;1257;69895;-84
2024/03/08 11:46:34;;;;;;;15.40;8.30;;;;;;;7.86;43.01;101195.23;106371;1253;75322;-87
2024/03/08 15:49:56;;;;;;;13.50;6.80;;;;;;;4.17;48.56;101005.56;106372;1250;72711;-87
2024/03/08 15:52:30;;;;;;;25.40;12.20;;;;;;;4.07;48.76;101008.33;106304;1261;61436;-86
2024/03/08 15:55:05;;;;;;;27.30;12.10;;;;;;;3.94;49.09;101001.38;106288;1251;62536;-86
2024/03/08 15:57:39;;;;;;;24.00;12.30;;;;;;;3.82;49.23;101006.63;106342;1251;76614;-86
2024/03/08 16:00:18;;;;;;;24.60;12.00;;;;;;;3.61;49.73;101008.70;106209;1254;72821;-86
2024/03/08 16:02:52;;;;;;;22.40;11.20;;;;;;;3.48;50.12;101013.59;106284;1254;74671;-86
2024/03/08 16:05:26;;;;;;;22.20;11.10;;;;;;;3.37;50.26;101015.08;106237;1253;61602;-86
2024/03/08 16:08:00;;;;;;;21.20;10.70;;;;;;;3.23;50.84;101012.20;106238;1253;61343;-86
2024/03/08 16:10:35;;;;;;;24.90;12.30;;;;;;;3.08;51.41;101014.86;106438;1258;76717;-88
2024/03/08 16:13:06;;;;;;;22.10;11.20;;;;;;;2.97;51.87;101015.67;107880;1253;70077;-88
2024/03/08 16:15:40;;;;;;;20.90;10.60;;;;;;;2.86;52.31;101011.66;107850;1253;74030;-87
2024/03/08 16:18:15;;;;;;;17.80;10.00;;;;;;;2.75;52.80;101014.60;109260;1251;60418;-87
2024/03/08 16:20:47;;;;;;;20.90;10.10;;;;;;;2.63;53.07;101017.19;106256;1253;61248;-88
2024/03/08 16:23:24;;;;;;;26.30;11.90;;;;;;;2.52;53.38;101020.02;106472;1251;76882;-86
2024/03/08 16:25:58;;;;;;;26.70;13.20;;;;;;;2.40;53.89;101018.67;106390;1253;69795;-87
2024/03/08 16:28:38;;;;;;;30.20;13.70;;;;;;;2.33;54.32;101017.35;106503;1256;73446;-88
2024/03/08 16:31:14;;;;;;;32.80;14.80;;;;;;;2.20;54.95;101014.69;106567;1256;61399;-88
2024/03/08 16:33:44;;;;;;;37.20;14.60;;;;;;;2.09;55.32;101017.69;106437;1252;62192;-86
2024/03/08 16:36:18;;;;;;;34.50;15.30;;;;;;;1.98;55.99;101021.92;106527;1251;76866;-88
2024/03/08 16:38:52;;;;;;;27.20;13.70;;;;;;;1.84;56.49;101016.66;106363;1258;69674;-87
2024/03/08 16:41:21;;;;;;;30.60;13.70;;;;;;;1.77;57.07;101019.41;106577;1257;75134;-88
2024/03/08 16:43:57;;;;;;;34.40;15.60;;;;;;;1.67;58.02;101016.21;106379;1256;61194;-87
2024/03/08 16:46:34;;;;;;;28.50;13.40;;;;;;;1.50;58.93;101015.71;106421;1256;61379;-87
2024/03/08 16:49:12;;;;;;;28.90;12.90;;;;;;;1.38;60.12;101020.13;106392;1253;74338;-87
2024/03/08 16:51:40;;;;;;;28.00;12.70;;;;;;;1.23;61.00;101019.17;106562;1253;71123;-87
2024/03/08 16:54:15;;;;;;;28.10;13.00;;;;;;;1.14;61.90;101015.39;106442;1256;74252;-89
2024/03/08 16:56:49;;;;;;;26.20;11.70;;;;;;;1.01;63.17;101014.82;106218;1257;62527;-90
2024/03/08 16:59:23;;;;;;;30.00;13.50;;;;;;;0.92;63.96;101016.90;106374;1253;61234;-87
2024/03/08 17:01:51;;;;;;;28.00;14.60;;;;;;;0.80;66.17;101018.76;106544;1257;75835;-88
2024/03/08 17:04:26;;;;;;;69.40;27.50;;;;;;;0.66;68.99;101019.38;106369;1259;70760;-89
2024/03/08 17:07:00;;;;;;;169.40;31.80;;;;;;;0.54;70.42;101023.29;107860;1251;74718;-88
2024/03/08 17:09:34;;;;;;;60.00;22.20;;;;;;;0.47;71.74;101022.41;106407;1253;61217;-88
2024/03/08 17:12:04;;;;;;;73.40;27.60;;;;;;;0.35;73.10;101021.40;106428;1260;61265;-88
2024/03/08 17:14:39;;;;;;;48.90;23.00;;;;;;;0.31;74.07;101019.44;106450;1252;76843;-89
2024/03/08 17:17:14;;;;;;;40.70;18.60;;;;;;;0.27;75.28;101024.05;106412;1253;69422;-89
2024/03/08 17:19:50;;;;;;;32.20;16.00;;;;;;;0.22;76.53;101021.58;106433;1253;73698;-89
2024/03/08 17:22:18;;;;;;;59.10;26.80;;;;;;;0.17;76.78;101019.63;106337;1256;61224;-87
2024/03/08 17:24:54;;;;;;;69.70;28.90;;;;;;;0.12;77.58;101018.52;106145;1253;62230;-88
2024/03/08 17:27:28;;;;;;;39.80;18.90;;;;;;;0.08;78.06;101017.46;106382;1258;75436;-88
2024/03/08 17:30:15;;;;;;;36.50;17.10;;;;;;;0.04;78.25;101016.94;106498;1253;68715;-89
2024/03/08 17:32:43;;;;;;;41.70;20.60;;;;;;;-0.03;78.15;101020.23;106914;1257;73534;-90
2024/03/08 17:35:18;;;;;;;37.60;17.50;;;;;;;-0.08;78.15;101022.86;107782;1257;62282;-88
2024/03/08 17:37:57;;;;;;;34.30;15.90;;;;;;;-0.18;78.39;101026.41;107250;1254;61604;-90
2024/03/08 17:40:31;;;;;;;39.20;16.50;;;;;;;-0.29;79.15;101025.73;106424;1257;75098;-87
2024/03/08 17:43:06;;;;;;;35.00;15.80;;;;;;;-0.32;79.38;101027.56;107485;1256;69044;-88
2024/03/08 17:45:42;;;;;;;32.00;15.60;;;;;;;-0.37;79.37;101028.45;106659;1259;74936;-90
2024/03/08 17:48:16;;;;;;;36.30;16.20;;;;;;;-0.48;79.81;101025.20;106427;1258;62196;-90
2024/03/08 17:50:53;;;;;;;35.40;15.80;;;;;;;-0.54;80.47;101020.61;106837;1256;61238;-89
2024/03/08 17:53:22;;;;;;;40.20;17.20;;;;;;;-0.59;81.42;101019.04;106642;1251;75906;-90
2024/03/08 17:55:57;;;;;;;45.50;19.40;;;;;;;-0.64;81.82;101018.61;107096;1251;70703;-88
2024/03/08 17:58:35;;;;;;;36.10;17.30;;;;;;;-0.77;83.00;101017.86;106458;1257;73042;-88
2024/03/08 18:01:03;;;;;;;43.10;19.70;;;;;;;-0.81;83.84;101013.77;106530;1256;61298;-88
2024/03/08 18:03:37;;;;;;;41.20;18.10;;;;;;;-0.88;84.70;101014.41;106561;1259;62135;-87
2024/03/08 18:06:11;;;;;;;53.50;19.30;;;;;;;-0.94;85.34;101013.73;106626;1259;78232;-89
2024/03/08 18:08:45;;;;;;;38.50;18.20;;;;;;;-1.01;86.16;101015.45;106754;1254;69563;-90
2024/03/08 18:11:15;;;;;;;40.30;17.60;;;;;;;-1.06;86.89;101015.11;106464;1256;75246;-87
2024/03/08 18:13:51;;;;;;;43.20;18.70;;;;;;;-1.10;87.58;101015.58;106474;1255;61564;-89
2024/03/08 18:16:25;;;;;;;39.60;18.10;;;;;;;-1.15;88.23;101018.36;106508;1256;61141;-89
2024/03/08 18:19:07;;;;;;;33.30;14.10;;;;;;;-1.19;88.65;101015.05;106411;1255;76449;-86
2024/03/08 18:21:36;;;;;;;30.10;13.70;;;;;;;-1.25;89.37;101016.50;106704;1254;70614;-87
2024/03/08 18:24:10;;;;;;;27.60;12.70;;;;;;;-1.27;89.64;101018.00;106773;1255;75002;-87
2024/03/08 18:26:44;;;;;;;29.60;12.90;;;;;;;-1.32;90.42;101017.82;106506;1251;61230;-89
2024/03/08 18:29:18;;;;;;;24.80;11.40;;;;;;;-1.34;91.11;101017.42;106589;1257;61397;-89
2024/03/08 18:31:47;;;;;;;24.00;11.60;;;;;;;-1.40;91.85;101018.09;106659;1257;74585;-89
2024/03/08 18:34:21;;;;;;;22.90;11.40;;;;;;;-1.45;92.14;101014.89;106594;1257;70862;-87
2024/03/08 18:36:56;;;;;;;27.20;12.40;;;;;;;-1.49;92.62;101013.85;106487;1259;74780;-90
2024/03/08 18:39:30;;;;;;;30.40;11.50;;;;;;;-1.53;92.96;101009.51;106357;1259;61502;-87
2024/03/08 18:42:06;;;;;;;28.80;10.60;;;;;;;-1.57;93.28;101011.77;106478;1252;61643;-87
2024/03/08 18:44:41;;;;;;;28.10;10.30;;;;;;;-1.61;93.43;101011.05;107888;1253;76974;-87
2024/03/08 18:47:17;;;;;;;25.40;10.00;;;;;;;-1.67;93.88;101007.88;106271;1251;71431;-89
2024/03/08 18:49:47;;;;;;;30.60;13.50;;;;;;;-1.68;94.02;101009.99;106477;1260;75174;-88
2024/03/08 18:52:23;;;;;;;29.80;11.80;;;;;;;-1.77;95.07;101007.25;106449;1258;61261;-87
2024/03/08 18:54:58;;;;;;;25.00;9.80;;;;;;;-1.82;96.02;101008.55;106418;1255;62235;-89
2024/03/08 18:57:33;;;;;;;28.20;11.30;;;;;;;-1.83;96.49;101008.31;106398;1257;76737;-87
2024/03/08 19:00:12;;;;;;;35.80;17.60;;;;;;;-1.82;96.24;101012.20;106606;1257;68866;-90
2024/03/08 19:02:50;;;;;;;39.10;17.10;;;;;;;-1.81;96.17;101011.15;106496;1254;74014;-89
2024/03/08 19:05:25;;;;;;;35.50;15.60;;;;;;;-1.83;95.74;101011.46;106530;1257;62255;-87
2024/03/08 19:08:06;;;;;;;32.80;13.80;;;;;;;-1.88;95.67;101006.77;107227;1251;61155;-88
2024/03/08 19:10:35;;;;;;;29.40;13.10;;;;;;;-1.93;95.92;101007.19;106496;1251;76418;-88
2024/03/08 19:13:12;;;;;;;25.60;12.70;;;;;;;-1.96;95.81;101009.48;106333;1258;69294;-88
2024/03/08 19:15:51;;;;;;;28.30;11.90;;;;;;;-1.99;96.10;101007.66;106406;1256;73746;-88
2024/03/08 19:18:27;;;;;;;24.50;10.40;;;;;;;-2.03;96.65;101003.45;106333;1260;61250;-87
2024/03/08 19:20:58;;;;;;;26.90;11.60;;;;;;;-2.12;97.67;101008.38;106378;1251;61171;-87
2024/03/08 19:23:34;;;;;;;28.50;11.20;;;;;;;-2.18;98.23;101005.17;106345;1258;75905;-87
2024/03/08 19:26:02;;;;;;;31.00;12.20;;;;;;;-2.25;99.16;101012.25;106446;1257;70378;-87
2024/03/08 19:28:36;;;;;;;32.20;13.00;;;;;;;-2.28;99.47;101008.88;106342;1257;75104;-87
2024/03/08 19:31:06;;;;;;;38.40;14.20;;;;;;;-2.32;99.82;101010.17;106317;1261;61694;-87
2024/03/08 19:33:40;;;;;;;35.20;14.50;;;;;;;-2.34;99.89;101008.98;107337;1251;61228;-87
2024/03/08 19:36:17;;;;;;;39.40;14.80;;;;;;;-2.38;100.00;101009.13;106462;1251;76727;-88
2024/03/08 19:38:52;;;;;;;47.40;17.40;;;;;;;-2.46;100.00;101003.67;106628;1251;70220;-86
2024/03/08 19:41:23;;;;;;;41.10;18.80;;;;;;;-2.51;100.00;101004.59;106530;1251;74973;-87
2024/03/08 19:43:58;;;;;;;45.30;21.80;;;;;;;-2.53;100.00;101004.00;106361;1251;61075;-87
2024/03/08 19:46:40;;;;;;;52.40;20.30;;;;;;;-2.62;100.00;100998.42;106423;1257;61211;-87
